Elbe, Washington
Current Conditions -  °F | °C
As of 5:58 AM on Saturday 20 Dec 2014 (Local Time) from KGRF Reporting Station
Light Rain Light Rain  
Wind Chill: 42°   Ceiling: 5000
Heat Index: 45°   Visibility: 10mi
Dew Point: 43°   Wind: 5mph
Humidity: 93%   Direction: 140°SE
Pressure: 29.64"   Gusts: NA
Location:  46.76°N, 122.2°W
Report Text: KGRF 201358Z 14004KT 10SM -RA FEW034 OVC050 07/06 A2964 RMK SLP042
Loading
Personal Weather Stations






























Interactive Weather Map New forecast layout! Learn more

10-Day Weather Forecast

Advertisements
Track Severe Weather on mobile